createdAt,value
2018-06-16T00:01:25.459Z,2.43
2018-06-16T00:03:53.809Z,2.47
2018-06-16T00:06:22.061Z,2.87
2018-06-16T00:08:50.358Z,3.30
2018-06-16T00:11:18.605Z,3.20
2018-06-16T00:13:46.943Z,2.80
2018-06-16T00:16:15.188Z,2.50
2018-06-16T00:18:43.467Z,3.00
2018-06-16T00:21:11.697Z,2.83
2018-06-16T00:23:40.429Z,3.00
2018-06-16T00:26:08.662Z,3.80
2018-06-16T00:28:36.908Z,2.90
2018-06-16T00:31:05.184Z,2.37
2018-06-16T00:33:33.461Z,2.70
2018-06-16T00:36:01.749Z,2.73
2018-06-16T00:38:29.993Z,2.97
2018-06-16T00:40:58.260Z,3.23
2018-06-16T00:43:26.701Z,2.77
2018-06-16T00:45:54.968Z,3.10
2018-06-16T00:48:23.222Z,2.67
2018-06-16T00:50:51.499Z,2.30
2018-06-16T00:53:19.729Z,2.43
2018-06-16T00:55:48.018Z,2.63
2018-06-16T00:58:16.264Z,2.90
2018-06-16T01:00:44.539Z,2.63
2018-06-16T01:03:13.429Z,3.03
2018-06-16T01:05:41.689Z,2.77
2018-06-16T01:08:09.940Z,2.90
2018-06-16T01:10:38.217Z,3.20
2018-06-16T01:13:06.469Z,2.90
2018-06-16T01:15:34.709Z,2.53
2018-06-16T01:18:02.969Z,2.87
2018-06-16T01:20:31.245Z,2.10
2018-06-16T01:22:59.510Z,2.90
2018-06-16T01:25:27.773Z,3.10
2018-06-16T01:27:56.065Z,3.53
2018-06-16T01:30:24.305Z,3.03
2018-06-16T01:32:52.593Z,2.90
2018-06-16T01:35:20.836Z,2.90
2018-06-16T01:37:49.093Z,3.30
2018-06-16T01:40:17.339Z,2.63
2018-06-16T01:42:45.607Z,2.80
2018-06-16T01:45:13.841Z,2.67
2018-06-16T01:47:42.112Z,3.33
2018-06-16T01:50:10.361Z,3.63
2018-06-16T01:52:38.633Z,2.80
2018-06-16T01:55:06.869Z,3.00
2018-06-16T01:57:35.122Z,3.50
2018-06-16T02:00:03.392Z,3.70
2018-06-16T02:02:31.633Z,2.90
2018-06-16T02:04:59.905Z,3.03
2018-06-16T02:07:28.146Z,3.13
2018-06-16T02:09:56.413Z,2.40
2018-06-16T02:12:24.741Z,3.20
2018-06-16T02:14:53.030Z,3.17
2018-06-16T02:17:21.282Z,2.87
2018-06-16T02:19:49.544Z,2.07
2018-06-16T02:22:17.777Z,3.20
2018-06-16T02:24:46.038Z,2.60
2018-06-16T02:27:14.277Z,3.17
2018-06-16T02:29:42.605Z,3.43
2018-06-16T02:32:10.852Z,3.30
2018-06-16T02:34:39.150Z,3.33
2018-06-16T02:37:07.414Z,2.80
2018-06-16T02:39:35.703Z,2.80
2018-06-16T02:42:03.937Z,3.80
2018-06-16T02:44:32.215Z,3.00
2018-06-16T02:47:00.457Z,2.80
2018-06-16T02:49:28.697Z,3.20
2018-06-16T02:51:56.963Z,4.07
2018-06-16T02:54:25.207Z,2.70
2018-06-16T02:56:53.480Z,4.30
2018-06-16T02:59:21.732Z,4.47
2018-06-16T03:01:50.017Z,3.80
2018-06-16T03:04:18.273Z,4.77
2018-06-16T03:06:46.548Z,4.90
2018-06-16T03:09:14.801Z,5.33
2018-06-16T03:11:43.082Z,4.40
2018-06-16T03:14:11.372Z,5.27
2018-06-16T03:16:39.676Z,4.93
2018-06-16T03:19:07.925Z,4.20
2018-06-16T03:21:36.205Z,4.47
2018-06-16T03:24:04.464Z,4.20
2018-06-16T03:26:32.733Z,4.57
2018-06-16T03:29:00.982Z,4.20
2018-06-16T03:31:29.265Z,4.83
2018-06-16T03:33:57.541Z,4.63
2018-06-16T03:36:25.895Z,3.90
2018-06-16T03:38:54.141Z,3.83
2018-06-16T03:41:22.421Z,4.10
2018-06-16T03:43:50.785Z,3.47
2018-06-16T03:46:19.041Z,4.30
2018-06-16T03:48:47.366Z,3.83
2018-06-16T03:51:15.597Z,4.60
2018-06-16T03:53:43.887Z,3.50
2018-06-16T03:56:12.137Z,3.27
2018-06-16T03:58:40.433Z,3.00
2018-06-16T04:01:08.696Z,3.70
2018-06-16T04:03:36.968Z,3.33
2018-06-16T04:06:05.357Z,4.07
2018-06-16T04:08:33.646Z,2.93
2018-06-16T04:11:02.006Z,2.67
2018-06-16T04:13:30.301Z,3.00
2018-06-16T04:15:58.559Z,2.83
2018-06-16T04:18:26.829Z,2.80
2018-06-16T04:20:55.077Z,3.27
2018-06-16T04:23:23.363Z,2.77
2018-06-16T04:25:51.716Z,2.53
2018-06-16T04:28:19.960Z,2.63
2018-06-16T04:30:48.220Z,2.93
2018-06-16T04:33:16.538Z,2.80
2018-06-16T04:35:44.782Z,2.60
2018-06-16T04:38:13.041Z,3.47
2018-06-16T04:40:41.317Z,2.90
2018-06-16T04:43:09.560Z,4.33
2018-06-16T04:45:37.919Z,2.43
2018-06-16T04:48:06.257Z,2.72
2018-06-16T04:50:34.653Z,3.57
2018-06-16T04:53:02.906Z,2.73
2018-06-16T04:55:31.210Z,3.43
2018-06-16T04:57:59.485Z,4.07
2018-06-16T05:00:27.766Z,3.40
2018-06-16T05:02:56.024Z,2.77
2018-06-16T05:05:24.322Z,3.33
2018-06-16T05:07:52.581Z,3.13
2018-06-16T05:10:20.848Z,2.50
2018-06-16T05:12:49.120Z,3.13
2018-06-16T05:15:17.421Z,3.00
2018-06-16T05:17:45.720Z,2.33
2018-06-16T05:20:13.982Z,2.40
2018-06-16T05:22:42.349Z,2.90
2018-06-16T05:25:10.725Z,3.00
2018-06-16T05:27:39.140Z,3.20
2018-06-16T05:30:07.405Z,3.50
2018-06-16T05:32:35.890Z,2.70
2018-06-16T05:35:04.169Z,2.80
2018-06-16T05:37:32.469Z,3.10
2018-06-16T05:40:00.728Z,3.23
2018-06-16T05:42:29.183Z,3.90
2018-06-16T05:44:58.433Z,3.10
2018-06-16T05:47:26.761Z,3.50
2018-06-16T05:49:55.049Z,3.23
2018-06-16T05:52:23.333Z,3.40
2018-06-16T05:54:51.593Z,3.20
2018-06-16T05:57:19.893Z,3.30
2018-06-16T05:59:48.149Z,3.90
2018-06-16T06:02:16.471Z,3.90
2018-06-16T06:04:44.788Z,3.93
2018-06-16T06:07:13.280Z,4.07
2018-06-16T06:09:41.577Z,3.57
2018-06-16T06:12:09.901Z,3.97
2018-06-16T06:14:38.189Z,3.60
2018-06-16T06:17:06.440Z,3.90
2018-06-16T06:19:34.741Z,4.20
2018-06-16T06:22:03.057Z,4.00
2018-06-16T06:24:31.648Z,4.40
2018-06-16T06:26:59.973Z,4.63
2018-06-16T06:29:28.245Z,5.90
2018-06-16T06:31:56.519Z,4.80
2018-06-16T06:34:24.824Z,4.40
2018-06-16T06:36:53.077Z,5.50
2018-06-16T06:39:21.357Z,5.43
2018-06-16T06:41:49.604Z,5.40
2018-06-16T06:44:17.897Z,4.70
2018-06-16T06:46:46.157Z,5.50
2018-06-16T06:49:14.485Z,5.30
2018-06-16T06:51:42.878Z,5.10
2018-06-16T06:54:11.109Z,4.87
2018-06-16T06:56:39.401Z,5.20
2018-06-16T06:59:07.653Z,4.97
2018-06-16T07:01:35.953Z,5.50
2018-06-16T07:04:04.307Z,6.27
2018-06-16T07:06:32.596Z,6.17
2018-06-16T07:09:00.868Z,5.83
2018-06-16T07:11:29.152Z,5.10
2018-06-16T07:13:57.433Z,5.20
2018-06-16T07:16:25.796Z,5.27
2018-06-16T07:18:54.045Z,5.87
2018-06-16T07:21:22.337Z,5.50
2018-06-16T07:23:50.598Z,7.00
2018-06-16T07:26:18.880Z,6.30
2018-06-16T07:28:47.140Z,6.27
2018-06-16T07:31:15.435Z,6.07
2018-06-16T07:33:43.850Z,5.97
2018-06-16T07:36:12.178Z,6.27
2018-06-16T07:38:40.474Z,5.87
2018-06-16T07:41:08.778Z,6.30
2018-06-16T07:43:37.385Z,6.53
2018-06-16T07:46:05.957Z,6.10
2018-06-16T07:48:34.341Z,5.97
2018-06-16T07:51:02.641Z,6.37
2018-06-16T07:53:30.923Z,5.87
2018-06-16T07:55:59.173Z,6.03
2018-06-16T07:58:27.457Z,7.33
2018-06-16T08:00:55.709Z,8.93
2018-06-16T08:03:23.989Z,10.57
2018-06-16T08:05:52.242Z,5.83
2018-06-16T08:08:20.537Z,7.07
2018-06-16T08:10:48.794Z,7.30
2018-06-16T08:13:17.065Z,7.93
2018-06-16T08:15:45.326Z,7.60
2018-06-16T08:18:13.630Z,8.70
2018-06-16T08:20:41.881Z,6.77
2018-06-16T08:23:10.201Z,6.30
2018-06-16T08:25:38.459Z,7.20
2018-06-16T08:28:06.700Z,7.60
2018-06-16T08:30:35.017Z,7.23
2018-06-16T08:33:03.334Z,6.50
2018-06-16T08:35:31.613Z,7.40
2018-06-16T08:37:59.921Z,6.77
2018-06-16T08:40:28.209Z,6.30
2018-06-16T08:42:56.473Z,6.73
2018-06-16T08:45:24.772Z,7.40
2018-06-16T08:47:53.020Z,6.57
2018-06-16T08:50:21.313Z,7.50
2018-06-16T08:52:49.686Z,7.97
2018-06-16T08:55:18.236Z,8.27
2018-06-16T08:57:46.556Z,6.27
2018-06-16T09:00:14.845Z,7.60
2018-06-16T09:02:43.098Z,6.90
2018-06-16T09:05:11.417Z,8.00
2018-06-16T09:07:39.677Z,7.57
2018-06-16T09:10:07.977Z,8.30
2018-06-16T09:12:36.293Z,7.20
2018-06-16T09:15:04.669Z,7.37
2018-06-16T09:17:32.983Z,7.77
2018-06-16T09:20:01.251Z,7.70
2018-06-16T09:22:29.559Z,7.47
2018-06-16T09:24:58.034Z,6.87
2018-06-16T09:27:26.358Z,7.43
2018-06-16T09:29:54.633Z,6.70
2018-06-16T09:32:22.915Z,7.43
2018-06-16T09:34:51.194Z,7.90
2018-06-16T09:37:19.474Z,6.53
2018-06-16T09:39:47.738Z,7.17
2018-06-16T09:42:16.021Z,6.90
2018-06-16T09:44:44.290Z,7.50
2018-06-16T09:47:12.578Z,7.50
2018-06-16T09:49:40.845Z,6.77
2018-06-16T09:52:09.133Z,6.23
2018-06-16T09:54:37.400Z,6.70
2018-06-16T09:57:05.704Z,7.03
2018-06-16T09:59:33.957Z,7.17
2018-06-16T10:02:02.218Z,6.20
2018-06-16T10:04:30.538Z,7.30
2018-06-16T10:06:58.889Z,6.50
2018-06-16T10:10:30.136Z,8.13
2018-06-16T10:12:58.429Z,7.50
2018-06-16T10:15:26.697Z,6.90
2018-06-16T10:17:54.957Z,7.50
2018-06-16T10:20:23.336Z,6.20
2018-06-16T10:22:51.689Z,5.70
2018-06-16T10:25:20.007Z,6.63
2018-06-16T10:27:48.382Z,7.07
2018-06-16T10:30:16.665Z,6.30
2018-06-16T10:32:45.030Z,5.93
2018-06-16T10:35:13.329Z,6.60
2018-06-16T10:37:41.598Z,7.13
2018-06-16T10:40:09.941Z,6.80
2018-06-16T10:42:38.396Z,7.67
2018-06-16T10:45:06.729Z,7.50
2018-06-16T10:47:35.115Z,8.20
2018-06-16T10:50:03.482Z,8.53
2018-06-16T10:52:31.745Z,7.87
2018-06-16T10:55:00.070Z,7.37
2018-06-16T10:57:28.364Z,6.70
2018-06-16T10:59:56.933Z,7.30
2018-06-16T11:02:25.206Z,6.80
2018-06-16T11:04:53.539Z,8.30
2018-06-16T11:07:21.841Z,8.07
2018-06-16T11:09:50.098Z,8.40
2018-06-16T11:12:18.514Z,8.40
2018-06-16T11:14:46.797Z,8.73
2018-06-16T11:17:15.230Z,8.50
2018-06-16T11:19:43.537Z,7.63
2018-06-16T11:22:11.834Z,7.47
2018-06-16T11:24:40.122Z,7.10
2018-06-16T11:27:08.421Z,7.93
2018-06-16T11:29:36.699Z,8.23
2018-06-16T11:32:05.241Z,7.73
2018-06-16T11:34:33.542Z,7.57
2018-06-16T11:37:01.823Z,9.10
2018-06-16T11:39:30.116Z,9.27
2018-06-16T11:41:58.393Z,7.23
2018-06-16T11:44:26.853Z,8.03
2018-06-16T11:46:55.141Z,8.57
2018-06-16T11:49:23.716Z,9.40
2018-06-16T11:51:52.022Z,8.40
2018-06-16T11:54:20.341Z,10.43
2018-06-16T11:56:48.617Z,8.40
2018-06-16T11:59:17.126Z,9.70
2018-06-16T12:01:45.477Z,9.57
2018-06-16T12:04:13.777Z,8.77
2018-06-16T12:06:42.061Z,8.97
2018-06-16T12:09:12.177Z,9.37
2018-06-16T12:11:40.481Z,9.03
2018-06-16T12:14:09.537Z,9.10
2018-06-16T12:16:38.101Z,7.33
2018-06-16T12:19:06.705Z,7.50
2018-06-16T12:21:35.030Z,7.57
2018-06-16T12:24:03.359Z,8.87
2018-06-16T12:26:31.706Z,8.30
2018-06-16T12:29:00.105Z,8.80
2018-06-16T12:31:28.370Z,7.30
2018-06-16T12:33:56.786Z,7.07
2018-06-16T12:36:25.074Z,7.67
2018-06-16T12:38:53.340Z,7.30
2018-06-16T12:41:21.797Z,6.80
2018-06-16T12:43:50.357Z,6.67
2018-06-16T12:46:18.669Z,7.30
2018-06-16T12:48:46.993Z,6.77
2018-06-16T12:51:15.310Z,6.97
2018-06-16T12:53:43.574Z,6.30
2018-06-16T12:56:11.979Z,6.47
2018-06-16T12:58:40.278Z,7.62
2018-06-16T13:01:08.594Z,6.93
2018-06-16T13:03:36.864Z,7.90
2018-06-16T13:06:05.153Z,7.43
2018-06-16T13:08:33.428Z,6.80
2018-06-16T13:11:01.681Z,6.23
2018-06-16T13:13:30.200Z,7.37
2018-06-16T13:15:58.469Z,6.50
2018-06-16T13:18:26.821Z,7.93
2018-06-16T13:20:55.071Z,8.00
2018-06-16T13:23:23.356Z,7.80
2018-06-16T13:25:51.612Z,7.17
2018-06-16T13:28:19.925Z,7.90
2018-06-16T13:30:48.186Z,8.47
2018-06-16T13:33:16.469Z,9.57
2018-06-16T13:35:44.785Z,8.50
2018-06-16T13:38:13.081Z,8.10
2018-06-16T13:40:41.333Z,5.77
2018-06-16T13:43:09.605Z,4.17
2018-06-16T13:45:37.866Z,4.27
2018-06-16T13:48:06.206Z,3.83
2018-06-16T13:50:34.609Z,3.63
2018-06-16T13:53:02.861Z,4.20
2018-06-16T13:55:31.191Z,4.50
2018-06-16T13:57:59.485Z,4.50
2018-06-16T14:00:27.756Z,4.30
2018-06-16T14:02:56.007Z,3.70
2018-06-16T14:05:24.301Z,4.20
2018-06-16T14:07:52.595Z,5.03
2018-06-16T14:10:20.968Z,5.27
2018-06-16T14:12:49.409Z,4.97
2018-06-16T14:15:17.686Z,5.90
2018-06-16T14:17:45.950Z,5.77
2018-06-16T14:20:14.233Z,5.23
2018-06-16T14:22:42.579Z,6.63
2018-06-16T14:25:10.862Z,9.47
2018-06-16T14:27:39.115Z,7.80
2018-06-16T14:30:07.541Z,6.63
2018-06-16T14:32:35.898Z,7.00
2018-06-16T14:35:04.281Z,7.33
2018-06-16T14:37:32.732Z,7.17
2018-06-16T14:40:01.009Z,6.30
2018-06-16T14:42:29.298Z,6.37
2018-06-16T14:44:57.568Z,7.50
2018-06-16T14:47:25.891Z,8.00
2018-06-16T14:49:54.221Z,8.00
2018-06-16T14:52:22.521Z,8.60
2018-06-16T14:54:50.765Z,8.67
2018-06-16T14:57:19.053Z,7.70
2018-06-16T14:59:47.309Z,8.17
2018-06-16T15:02:15.774Z,7.80
2018-06-16T15:04:44.096Z,8.30
2018-06-16T15:07:12.305Z,7.90
2018-06-16T15:09:40.557Z,8.23
2018-06-16T15:12:08.838Z,7.30
2018-06-16T15:14:37.101Z,7.53
2018-06-16T15:17:05.384Z,8.63
2018-06-16T15:19:33.790Z,9.73
2018-06-16T15:22:02.342Z,8.30
2018-06-16T15:24:30.600Z,8.60
2018-06-16T15:26:58.856Z,9.93
2018-06-16T15:29:27.173Z,8.53
2018-06-16T15:31:55.430Z,8.40
2018-06-16T15:34:23.741Z,9.20
2018-06-16T15:36:52.013Z,9.90
2018-06-16T15:39:20.301Z,10.43
2018-06-16T15:41:48.561Z,8.83
2018-06-16T15:44:16.941Z,10.27
2018-06-16T15:46:45.257Z,11.73
2018-06-16T15:49:13.501Z,11.53
2018-06-16T15:51:42.611Z,12.10
2018-06-16T15:54:10.958Z,11.27
2018-06-16T15:56:39.213Z,14.87
2018-06-16T15:59:07.509Z,17.07
2018-06-16T16:01:35.770Z,16.80
2018-06-16T16:04:04.097Z,17.07
2018-06-16T16:06:32.442Z,15.80
2018-06-16T16:09:00.738Z,18.67
2018-06-16T16:11:29.020Z,18.40
2018-06-16T16:13:57.353Z,18.10
2018-06-16T16:16:25.668Z,16.93
2018-06-16T16:18:54.001Z,18.07
2018-06-16T16:21:22.305Z,17.13
2018-06-16T16:23:50.573Z,17.77
2018-06-16T16:26:18.853Z,17.53
2018-06-16T16:28:47.108Z,17.20
2018-06-16T16:31:15.388Z,17.30
2018-06-16T16:33:43.768Z,17.57
2018-06-16T16:36:12.081Z,17.43
2018-06-16T16:38:40.421Z,18.07
2018-06-16T16:41:08.708Z,16.80
2018-06-16T16:43:36.961Z,17.90
2018-06-16T16:46:05.260Z,14.80
2018-06-16T16:48:33.520Z,14.93
2018-06-16T16:51:01.804Z,15.13
2018-06-16T16:53:30.057Z,16.37
2018-06-16T16:55:58.374Z,15.07
2018-06-16T16:58:26.724Z,15.80
2018-06-16T17:00:55.033Z,21.73
2018-06-16T17:03:23.321Z,15.87
2018-06-16T17:05:51.652Z,16.10
2018-06-16T17:08:19.934Z,15.30
2018-06-16T17:10:48.189Z,25.43
2018-06-16T17:13:16.460Z,15.60
2018-06-16T17:15:44.723Z,17.27
2018-06-16T17:18:13.010Z,16.13
2018-06-16T17:20:41.315Z,12.80
2018-06-16T17:23:09.590Z,13.43
2018-06-16T17:25:37.869Z,14.57
2018-06-16T17:28:06.177Z,14.53
2018-06-16T17:30:34.433Z,13.23
2018-06-16T17:33:02.709Z,11.87
2018-06-16T17:35:30.993Z,11.93
2018-06-16T17:37:59.301Z,12.60
2018-06-16T17:40:27.589Z,11.70
2018-06-16T17:42:55.877Z,11.53
2018-06-16T17:45:24.129Z,16.07
2018-06-16T17:47:52.400Z,14.90
2018-06-16T17:50:20.709Z,16.50
2018-06-16T17:52:49.003Z,14.30
2018-06-16T17:55:17.289Z,16.10
2018-06-16T17:57:45.801Z,18.17
2018-06-16T18:00:14.168Z,19.97
2018-06-16T18:02:42.441Z,18.47
2018-06-16T18:05:10.725Z,22.37
2018-06-16T18:07:38.994Z,22.37
2018-06-16T18:10:07.417Z,22.30
2018-06-16T18:12:35.669Z,24.47
2018-06-16T18:15:04.006Z,24.00
2018-06-16T18:17:32.257Z,23.83
2018-06-16T18:20:00.586Z,23.50
2018-06-16T18:22:28.835Z,26.97
2018-06-16T18:24:57.137Z,24.77
2018-06-16T18:27:25.389Z,27.00
2018-06-16T18:29:53.682Z,27.10
2018-06-16T18:32:21.929Z,26.20
2018-06-16T18:34:50.244Z,25.67
2018-06-16T18:37:18.513Z,26.63
2018-06-16T18:39:46.905Z,27.23
2018-06-16T18:42:15.157Z,25.40
2018-06-16T18:44:43.417Z,25.67
2018-06-16T18:47:11.725Z,28.93
2018-06-16T18:49:40.083Z,27.00
2018-06-16T18:52:08.388Z,25.47
2018-06-16T18:54:36.642Z,27.20
2018-06-16T18:57:05.022Z,25.90
2018-06-16T18:59:33.297Z,29.83
2018-06-16T19:02:01.585Z,32.20
2018-06-16T19:04:29.844Z,29.70
2018-06-16T19:06:58.129Z,28.30
2018-06-16T19:09:26.381Z,27.60
2018-06-16T19:11:54.673Z,27.30
2018-06-16T19:14:22.925Z,29.30
2018-06-16T19:16:51.206Z,28.77
2018-06-16T19:19:19.453Z,29.60
2018-06-16T19:21:47.733Z,27.60
2018-06-16T19:24:15.989Z,28.70
2018-06-16T19:26:44.285Z,26.10
2018-06-16T19:29:12.712Z,28.27
2018-06-16T19:31:41.021Z,28.27
2018-06-16T19:34:09.617Z,28.40
2018-06-16T19:36:37.925Z,28.30
2018-06-16T19:39:09.333Z,29.37
2018-06-16T19:41:38.011Z,27.30
2018-06-16T19:44:06.501Z,30.40
2018-06-16T19:46:34.853Z,28.13
2018-06-16T19:49:03.257Z,31.73
2018-06-16T19:51:31.526Z,27.50
2018-06-16T19:53:59.801Z,25.73
2018-06-16T19:56:28.065Z,29.73
2018-06-16T19:58:56.773Z,28.13
2018-06-16T20:01:25.225Z,31.03
2018-06-16T20:03:53.504Z,28.20
2018-06-16T20:06:21.841Z,28.77
2018-06-16T20:08:50.134Z,30.87
2018-06-16T20:11:18.745Z,32.03
2018-06-16T20:13:47.022Z,29.37
2018-06-16T20:16:15.394Z,29.60
2018-06-16T20:18:43.645Z,31.40
2018-06-16T20:21:11.937Z,29.70
2018-06-16T20:23:40.240Z,33.43
2018-06-16T20:26:08.837Z,33.70
2018-06-16T20:28:37.275Z,33.17
2018-06-16T20:31:05.577Z,32.30
2018-06-16T20:33:33.842Z,35.53
2018-06-16T20:36:02.242Z,36.90
2018-06-16T20:38:30.501Z,36.57
2018-06-16T20:40:58.955Z,34.03
2018-06-16T20:43:27.222Z,36.73
2018-06-16T20:45:55.528Z,38.47
2018-06-16T20:48:24.001Z,37.80
2018-06-16T20:50:52.296Z,40.60
2018-06-16T20:53:20.563Z,32.20
2018-06-16T20:55:48.921Z,38.40
2018-06-16T20:58:17.411Z,43.00
2018-06-16T21:00:45.933Z,41.23
2018-06-16T21:03:14.192Z,45.33
2018-06-16T21:05:42.933Z,43.90
2018-06-16T21:08:11.197Z,38.30
2018-06-16T21:10:39.473Z,40.90
2018-06-16T21:13:08.021Z,37.17
2018-06-16T21:15:36.278Z,41.90
2018-06-16T21:18:04.617Z,43.30
2018-06-16T21:20:32.884Z,38.70
2018-06-16T21:23:01.333Z,38.83
2018-06-16T21:25:29.597Z,42.20
2018-06-16T21:27:57.897Z,44.03
2018-06-16T21:30:26.203Z,44.57
2018-06-16T21:32:54.493Z,44.60
2018-06-16T21:35:22.793Z,43.90
2018-06-16T21:37:51.193Z,39.07
2018-06-16T21:40:19.494Z,36.80
2018-06-16T21:42:47.793Z,41.93
2018-06-16T21:45:16.080Z,36.37
2018-06-16T21:47:44.374Z,38.00
2018-06-16T21:50:12.641Z,33.53
2018-06-16T21:52:40.957Z,35.77
2018-06-16T21:55:09.213Z,39.03
2018-06-16T21:57:37.564Z,40.50
2018-06-16T22:00:09.857Z,39.90
2018-06-16T22:02:38.228Z,36.50
2018-06-16T22:05:07.126Z,38.60
2018-06-16T22:07:35.410Z,40.70
2018-06-16T22:10:03.813Z,39.80
2018-06-16T22:12:32.090Z,35.10
2018-06-16T22:15:00.397Z,42.90
2018-06-16T22:17:28.663Z,37.93
2018-06-16T22:19:57.091Z,43.23
2018-06-16T22:22:25.438Z,38.97
2018-06-16T22:24:53.750Z,44.90
2018-06-16T22:27:22.041Z,40.30
2018-06-16T22:29:50.372Z,37.73
2018-06-16T22:32:18.641Z,38.60
2018-06-16T22:34:46.972Z,34.23
2018-06-16T22:37:15.277Z,38.77
2018-06-16T22:39:43.573Z,41.47
2018-06-16T22:42:11.853Z,39.60
2018-06-16T22:44:40.256Z,44.40
2018-06-16T22:47:08.569Z,38.80
2018-06-16T22:49:36.880Z,41.63
2018-06-16T22:52:05.139Z,41.77
2018-06-16T22:54:33.430Z,43.10
2018-06-16T22:57:01.808Z,44.00
2018-06-16T22:59:30.122Z,42.87
2018-06-16T23:01:58.404Z,44.77
2018-06-16T23:04:26.721Z,43.30
2018-06-16T23:06:55.014Z,39.87
2018-06-16T23:09:23.285Z,40.93
2018-06-16T23:11:51.590Z,46.90
2018-06-16T23:14:19.876Z,45.50
2018-06-16T23:16:48.187Z,46.83
2018-06-16T23:19:16.449Z,44.17
2018-06-16T23:21:44.785Z,44.90
2018-06-16T23:24:13.041Z,45.40
2018-06-16T23:26:41.331Z,44.83
2018-06-16T23:29:09.591Z,45.20
2018-06-16T23:31:37.876Z,44.73
2018-06-16T23:34:06.384Z,50.58
2018-06-16T23:36:34.735Z,43.60
2018-06-16T23:39:03.181Z,46.50
2018-06-16T23:41:31.489Z,39.73
2018-06-16T23:43:59.857Z,33.30
2018-06-16T23:46:28.125Z,38.77
2018-06-16T23:48:56.484Z,35.50
2018-06-16T23:51:24.765Z,36.43
2018-06-16T23:53:53.089Z,34.83
2018-06-16T23:56:21.384Z,32.13
2018-06-16T23:58:49.746Z,33.90
